sensor_id;sensor_type;location;lat;lon;timestamp;pressure;altitude;pressure_sealevel;temperature;humidity
83557;BME280;73523;55.740;13.276;2023-12-28T00:01:10;99915.47;;;22.43;29.08
83557;BME280;73523;55.740;13.276;2023-12-28T00:03:35;99906.63;;;22.41;28.97
83557;BME280;73523;55.740;13.276;2023-12-28T00:06:01;99888.13;;;22.41;28.94
83557;BME280;73523;55.740;13.276;2023-12-28T00:08:26;99882.06;;;22.39;28.81
83557;BME280;73523;55.740;13.276;2023-12-28T00:10:51;99866.31;;;22.40;28.80
83557;BME280;73523;55.740;13.276;2023-12-28T00:13:17;99850.84;;;22.39;28.72
83557;BME280;73523;55.740;13.276;2023-12-28T00:15:42;99834.00;;;22.40;28.82
83557;BME280;73523;55.740;13.276;2023-12-28T00:18:08;99824.91;;;22.40;28.72
83557;BME280;73523;55.740;13.276;2023-12-28T00:20:33;99812.19;;;22.39;28.86
83557;BME280;73523;55.740;13.276;2023-12-28T00:22:58;99803.09;;;22.38;29.00
83557;BME280;73523;55.740;13.276;2023-12-28T00:25:25;99792.59;;;22.40;28.79
83557;BME280;73523;55.740;13.276;2023-12-28T00:27:50;99784.59;;;22.39;28.63
83557;BME280;73523;55.740;13.276;2023-12-28T00:30:16;99781.56;;;22.40;28.63
83557;BME280;73523;55.740;13.276;2023-12-28T00:32:43;99764.97;;;22.35;28.73
83557;BME280;73523;55.740;13.276;2023-12-28T00:35:10;99742.06;;;22.35;28.94
83557;BME280;73523;55.740;13.276;2023-12-28T00:37:35;99752.00;;;22.36;28.95
83557;BME280;73523;55.740;13.276;2023-12-28T00:40:00;99726.63;;;22.34;28.73
83557;BME280;73523;55.740;13.276;2023-12-28T00:42:25;99721.41;;;22.32;28.78
83557;BME280;73523;55.740;13.276;2023-12-28T00:44:51;99719.47;;;22.33;28.67
83557;BME280;73523;55.740;13.276;2023-12-28T00:47:17;99723.31;;;22.32;28.81
83557;BME280;73523;55.740;13.276;2023-12-28T00:49:42;99716.97;;;22.31;28.74
83557;BME280;73523;55.740;13.276;2023-12-28T00:52:08;99698.75;;;22.30;28.84
83557;BME280;73523;55.740;13.276;2023-12-28T00:54:35;99696.56;;;22.27;29.00
83557;BME280;73523;55.740;13.276;2023-12-28T00:57:02;99684.41;;;22.28;29.01
83557;BME280;73523;55.740;13.276;2023-12-28T00:59:27;99681.09;;;22.26;29.08
83557;BME280;73523;55.740;13.276;2023-12-28T01:01:53;99685.78;;;22.25;28.93
83557;BME280;73523;55.740;13.276;2023-12-28T01:04:18;99678.63;;;22.24;28.93
83557;BME280;73523;55.740;13.276;2023-12-28T01:06:43;99673.09;;;22.24;28.75
83557;BME280;73523;55.740;13.276;2023-12-28T01:09:09;99667.03;;;22.22;29.00
83557;BME280;73523;55.740;13.276;2023-12-28T01:11:34;99660.66;;;22.22;28.98
83557;BME280;73523;55.740;13.276;2023-12-28T01:14:00;99661.81;;;22.21;29.13
83557;BME280;73523;55.740;13.276;2023-12-28T01:16:25;99659.31;;;22.19;29.02
83557;BME280;73523;55.740;13.276;2023-12-28T01:18:50;99647.19;;;22.15;29.16
83557;BME280;73523;55.740;13.276;2023-12-28T01:21:16;99650.78;;;22.16;29.10
83557;BME280;73523;55.740;13.276;2023-12-28T01:23:41;99649.13;;;22.15;28.82
83557;BME280;73523;55.740;13.276;2023-12-28T01:26:12;99653.81;;;22.14;28.97
83557;BME280;73523;55.740;13.276;2023-12-28T01:28:38;99647.75;;;22.12;28.96
83557;BME280;73523;55.740;13.276;2023-12-28T01:31:04;99633.13;;;22.12;29.08
83557;BME280;73523;55.740;13.276;2023-12-28T01:33:29;99611.84;;;22.12;29.17
83557;BME280;73523;55.740;13.276;2023-12-28T01:35:54;99606.94;;;22.09;29.01
83557;BME280;73523;55.740;13.276;2023-12-28T01:38:20;99614.91;;;22.11;29.08
83557;BME280;73523;55.740;13.276;2023-12-28T01:40:45;99630.63;;;22.10;29.19
83557;BME280;73523;55.740;13.276;2023-12-28T01:43:11;99625.41;;;22.09;29.06
83557;BME280;73523;55.740;13.276;2023-12-28T01:45:36;99641.97;;;22.09;29.23
83557;BME280;73523;55.740;13.276;2023-12-28T01:48:02;99655.19;;;22.12;29.11
83557;BME280;73523;55.740;13.276;2023-12-28T01:50:28;99653.25;;;22.12;29.04
83557;BME280;73523;55.740;13.276;2023-12-28T01:52:55;99639.75;;;22.11;28.98
83557;BME280;73523;55.740;13.276;2023-12-28T01:55:21;99606.34;;;22.12;29.27
83557;BME280;73523;55.740;13.276;2023-12-28T01:57:47;99581.78;;;22.11;29.06
83557;BME280;73523;55.740;13.276;2023-12-28T02:00:13;99569.91;;;22.10;29.07
83557;BME280;73523;55.740;13.276;2023-12-28T02:02:39;99609.09;;;22.12;29.15
83557;BME280;73523;55.740;13.276;2023-12-28T02:05:04;99602.75;;;22.12;29.23
83557;BME280;73523;55.740;13.276;2023-12-28T02:07:32;99570.22;;;22.09;29.17
83557;BME280;73523;55.740;13.276;2023-12-28T02:09:57;99580.41;;;22.13;28.96
83557;BME280;73523;55.740;13.276;2023-12-28T02:12:22;99553.63;;;22.14;29.24
83557;BME280;73523;55.740;13.276;2023-12-28T02:14:48;99552.78;;;22.13;29.20
83557;BME280;73523;55.740;13.276;2023-12-28T02:17:18;99554.44;;;22.14;29.32
83557;BME280;73523;55.740;13.276;2023-12-28T02:19:50;99537.88;;;22.14;28.98
83557;BME280;73523;55.740;13.276;2023-12-28T02:22:16;99542.31;;;22.15;29.10
83557;BME280;73523;55.740;13.276;2023-12-28T02:25:02;99535.94;;;22.15;29.28
83557;BME280;73523;55.740;13.276;2023-12-28T02:27:27;99531.00;;;22.12;29.11
83557;BME280;73523;55.740;13.276;2023-12-28T02:29:53;99526.06;;;22.09;29.20
83557;BME280;73523;55.740;13.276;2023-12-28T02:32:23;99518.91;;;22.08;29.35
83557;BME280;73523;55.740;13.276;2023-12-28T02:34:56;99504.81;;;22.09;29.28
83557;BME280;73523;55.740;13.276;2023-12-28T02:37:23;99484.44;;;22.00;29.18
83557;BME280;73523;55.740;13.276;2023-12-28T02:39:51;99489.66;;;22.07;29.40
83557;BME280;73523;55.740;13.276;2023-12-28T02:42:17;99493.22;;;22.07;29.13
83557;BME280;73523;55.740;13.276;2023-12-28T02:44:43;99476.13;;;22.05;29.53
83557;BME280;73523;55.740;13.276;2023-12-28T02:47:08;99470.06;;;22.03;29.29
83557;BME280;73523;55.740;13.276;2023-12-28T02:49:34;99462.63;;;22.04;29.38
83557;BME280;73523;55.740;13.276;2023-12-28T02:51:59;99464.25;;;22.05;29.36
83557;BME280;73523;55.740;13.276;2023-12-28T02:54:24;99461.50;;;22.05;29.36
83557;BME280;73523;55.740;13.276;2023-12-28T02:56:50;99450.75;;;22.03;29.33
83557;BME280;73523;55.740;13.276;2023-12-28T02:59:15;99442.47;;;22.03;29.47
83557;BME280;73523;55.740;13.276;2023-12-28T03:01:40;99425.09;;;22.03;29.27
83557;BME280;73523;55.740;13.276;2023-12-28T03:04:06;99422.34;;;22.03;29.26
83557;BME280;73523;55.740;13.276;2023-12-28T03:06:31;99419.28;;;22.04;29.34
83557;BME280;73523;55.740;13.276;2023-12-28T03:08:56;99427.56;;;22.04;29.28
83557;BME280;73523;55.740;13.276;2023-12-28T03:11:21;99426.47;;;22.05;29.37
83557;BME280;73523;55.740;13.276;2023-12-28T03:13:47;99419.00;;;22.06;29.47
83557;BME280;73523;55.740;13.276;2023-12-28T03:16:13;99410.19;;;22.04;29.11
83557;BME280;73523;55.740;13.276;2023-12-28T03:18:39;99411.56;;;22.06;29.24
83557;BME280;73523;55.740;13.276;2023-12-28T03:21:04;99420.38;;;22.08;29.29
83557;BME280;73523;55.740;13.276;2023-12-28T03:23:30;99411.78;;;22.10;29.42
83557;BME280;73523;55.740;13.276;2023-12-28T03:25:55;99409.84;;;22.10;29.14
83557;BME280;73523;55.740;13.276;2023-12-28T03:28:20;99403.22;;;22.11;29.31
83557;BME280;73523;55.740;13.276;2023-12-28T03:30:46;99404.03;;;22.12;29.31
83557;BME280;73523;55.740;13.276;2023-12-28T03:33:12;99408.75;;;22.11;29.05
83557;BME280;73523;55.740;13.276;2023-12-28T03:35:37;99403.75;;;22.13;29.26
83557;BME280;73523;55.740;13.276;2023-12-28T03:38:03;99403.75;;;22.13;29.37
83557;BME280;73523;55.740;13.276;2023-12-28T03:40:28;99403.47;;;22.15;29.44
83557;BME280;73523;55.740;13.276;2023-12-28T03:42:53;99395.47;;;22.13;29.28
83557;BME280;73523;55.740;13.276;2023-12-28T03:45:19;99404.88;;;22.12;29.32
83557;BME280;73523;55.740;13.276;2023-12-28T03:47:45;99384.19;;;22.10;29.35
83557;BME280;73523;55.740;13.276;2023-12-28T03:50:10;99386.94;;;22.10;29.30
83557;BME280;73523;55.740;13.276;2023-12-28T03:52:35;99378.19;;;22.03;29.35
83557;BME280;73523;55.740;13.276;2023-12-28T03:55:01;99385.31;;;22.09;29.50
83557;BME280;73523;55.740;13.276;2023-12-28T03:57:26;99379.81;;;22.09;29.31
83557;BME280;73523;55.740;13.276;2023-12-28T03:59:52;99389.69;;;22.10;29.60
83557;BME280;73523;55.740;13.276;2023-12-28T04:02:19;99375.13;;;22.04;29.39
83557;BME280;73523;55.740;13.276;2023-12-28T04:04:44;99379.53;;;22.05;29.41
83557;BME280;73523;55.740;13.276;2023-12-28T04:07:09;99382.03;;;22.07;29.50
83557;BME280;73523;55.740;13.276;2023-12-28T04:09:35;99378.16;;;22.08;29.57
83557;BME280;73523;55.740;13.276;2023-12-28T04:12:00;99370.69;;;22.08;29.53
83557;BME280;73523;55.740;13.276;2023-12-28T04:14:26;99357.72;;;22.09;29.47
83557;BME280;73523;55.740;13.276;2023-12-28T04:16:51;99378.16;;;22.08;29.62
83557;BME280;73523;55.740;13.276;2023-12-28T04:19:16;99377.56;;;22.11;29.60
83557;BME280;73523;55.740;13.276;2023-12-28T04:21:44;99378.44;;;22.06;29.50
83557;BME280;73523;55.740;13.276;2023-12-28T04:24:10;99385.59;;;22.07;29.56
83557;BME280;73523;55.740;13.276;2023-12-28T04:26:35;99384.19;;;22.10;29.53
83557;BME280;73523;55.740;13.276;2023-12-28T04:29:01;99386.66;;;22.11;29.43
83557;BME280;73523;55.740;13.276;2023-12-28T04:31:26;99384.72;;;22.12;29.73
83557;BME280;73523;55.740;13.276;2023-12-28T04:33:52;99389.41;;;22.11;29.60
83557;BME280;73523;55.740;13.276;2023-12-28T04:36:17;99390.25;;;22.12;29.46
83557;BME280;73523;55.740;13.276;2023-12-28T04:38:43;99384.19;;;22.10;29.46
83557;BME280;73523;55.740;13.276;2023-12-28T04:41:09;99388.84;;;22.14;29.64
83557;BME280;73523;55.740;13.276;2023-12-28T04:43:35;99384.16;;;22.15;29.55
83557;BME280;73523;55.740;13.276;2023-12-28T04:46:06;99383.34;;;22.14;29.71
83557;BME280;73523;55.740;13.276;2023-12-28T04:48:32;99382.22;;;22.15;29.48
83557;BME280;73523;55.740;13.276;2023-12-28T04:50:57;99381.13;;;22.16;29.48
83557;BME280;73523;55.740;13.276;2023-12-28T04:53:22;99369.78;;;22.18;29.80
83557;BME280;73523;55.740;13.276;2023-12-28T05:00:38;99359.56;;;22.18;30.08
83557;BME280;73523;55.740;13.276;2023-12-28T05:03:04;99368.13;;;22.17;30.17
83557;BME280;73523;55.740;13.276;2023-12-28T05:05:29;99370.91;;;22.17;30.50
83557;BME280;73523;55.740;13.276;2023-12-28T05:07:55;99367.59;;;22.15;31.26
83557;BME280;73523;55.740;13.276;2023-12-28T05:10:20;99370.63;;;22.13;30.33
83557;BME280;73523;55.740;13.276;2023-12-28T05:12:46;99359.59;;;22.13;30.78
83557;BME280;73523;55.740;13.276;2023-12-28T05:15:11;99356.84;;;22.13;30.68
83557;BME280;73523;55.740;13.276;2023-12-28T05:17:37;99361.25;;;22.14;31.05
83557;BME280;73523;55.740;13.276;2023-12-28T05:20:03;99362.06;;;22.15;30.85
83557;BME280;73523;55.740;13.276;2023-12-28T05:22:28;99348.56;;;22.13;30.91
83557;BME280;73523;55.740;13.276;2023-12-28T05:24:54;99359.03;;;22.16;30.83
83557;BME280;73523;55.740;13.276;2023-12-28T05:27:19;99354.34;;;22.17;30.77
83557;BME280;73523;55.740;13.276;2023-12-28T05:32:10;99350.19;;;22.19;30.52
83557;BME280;73523;55.740;13.276;2023-12-28T05:34:35;99355.09;;;22.22;30.72
83557;BME280;73523;55.740;13.276;2023-12-28T05:37:01;99343.78;;;22.24;30.57
83557;BME280;73523;55.740;13.276;2023-12-28T05:39:26;99339.91;;;22.25;30.54
83557;BME280;73523;55.740;13.276;2023-12-28T05:41:51;99347.06;;;22.26;30.42
83557;BME280;73523;55.740;13.276;2023-12-28T05:44:17;99360.59;;;22.27;30.38
83557;BME280;73523;55.740;13.276;2023-12-28T05:46:43;99371.34;;;22.29;30.48
83557;BME280;73523;55.740;13.276;2023-12-28T05:49:08;99378.22;;;22.32;30.56
83557;BME280;73523;55.740;13.276;2023-12-28T05:51:40;99375.47;;;22.32;30.56
83557;BME280;73523;55.740;13.276;2023-12-28T05:54:09;99370.78;;;22.32;30.34
83557;BME280;73523;55.740;13.276;2023-12-28T05:56:34;99373.00;;;22.30;30.52
83557;BME280;73523;55.740;13.276;2023-12-28T05:59:00;99385.91;;;22.35;30.20
83557;BME280;73523;55.740;13.276;2023-12-28T06:01:25;99381.22;;;22.35;30.38
83557;BME280;73523;55.740;13.276;2023-12-28T06:03:51;99379.28;;;22.36;30.45
83557;BME280;73523;55.740;13.276;2023-12-28T06:06:18;99387.56;;;22.36;30.44
83557;BME280;73523;55.740;13.276;2023-12-28T06:08:43;99387.56;;;22.36;30.48
83557;BME280;73523;55.740;13.276;2023-12-28T06:11:08;99385.91;;;22.35;30.32
83557;BME280;73523;55.740;13.276;2023-12-28T06:13:34;99394.72;;;22.37;30.26
83557;BME280;73523;55.740;13.276;2023-12-28T06:15:59;99386.44;;;22.37;30.34
83557;BME280;73523;55.740;13.276;2023-12-28T06:18:24;99392.25;;;22.35;30.27
83557;BME280;73523;55.740;13.276;2023-12-28T06:20:50;99390.31;;;22.36;30.23
83557;BME280;73523;55.740;13.276;2023-12-28T06:23:15;99391.44;;;22.35;30.24
83557;BME280;73523;55.740;13.276;2023-12-28T06:25:40;99389.22;;;22.37;30.35
83557;BME280;73523;55.740;13.276;2023-12-28T06:28:06;99388.38;;;22.36;30.58
83557;BME280;73523;55.740;13.276;2023-12-28T06:30:31;99391.44;;;22.35;30.28
83557;BME280;73523;55.740;13.276;2023-12-28T06:32:56;99390.03;;;22.37;30.28
83557;BME280;73523;55.740;13.276;2023-12-28T06:35:22;99393.38;;;22.34;30.46
83557;BME280;73523;55.740;13.276;2023-12-28T06:37:47;99389.81;;;22.34;30.62
83557;BME280;73523;55.740;13.276;2023-12-28T06:40:12;99389.81;;;22.34;30.35
83557;BME280;73523;55.740;13.276;2023-12-28T06:42:38;99398.88;;;22.34;30.43
83557;BME280;73523;55.740;13.276;2023-12-28T06:45:03;99401.38;;;22.36;30.33
83557;BME280;73523;55.740;13.276;2023-12-28T06:47:29;99394.72;;;22.37;30.50
83557;BME280;73523;55.740;13.276;2023-12-28T06:49:54;99396.09;;;22.39;30.17
83557;BME280;73523;55.740;13.276;2023-12-28T06:52:19;99387.00;;;22.39;30.39
83557;BME280;73523;55.740;13.276;2023-12-28T06:54:45;99372.63;;;22.42;30.60
83557;BME280;73523;55.740;13.276;2023-12-28T06:57:10;99370.69;;;22.42;30.20
83557;BME280;73523;55.740;13.276;2023-12-28T06:59:35;99372.03;;;22.45;30.22
83557;BME280;73523;55.740;13.276;2023-12-28T07:02:01;99370.69;;;22.42;30.42
83557;BME280;73523;55.740;13.276;2023-12-28T07:04:26;99372.03;;;22.45;30.46
83557;BME280;73523;55.740;13.276;2023-12-28T07:06:54;99361.81;;;22.45;30.25
83557;BME280;73523;55.740;13.276;2023-12-28T07:09:20;99355.47;;;22.45;30.17
83557;BME280;73523;55.740;13.276;2023-12-28T07:11:45;99355.47;;;22.45;30.19
83557;BME280;73523;55.740;13.276;2023-12-28T07:14:11;99355.97;;;22.47;30.27
83557;BME280;73523;55.740;13.276;2023-12-28T07:16:36;99360.38;;;22.48;30.04
83557;BME280;73523;55.740;13.276;2023-12-28T07:19:01;99339.13;;;22.48;30.32
83557;BME280;73523;55.740;13.276;2023-12-28T07:21:28;99330.00;;;22.48;30.50
83557;BME280;73523;55.740;13.276;2023-12-28T07:23:54;99324.50;;;22.48;30.27
83557;BME280;73523;55.740;13.276;2023-12-28T07:26:19;99330.31;;;22.46;30.33
83557;BME280;73523;55.740;13.276;2023-12-28T07:28:44;99345.75;;;22.47;30.41
83557;BME280;73523;55.740;13.276;2023-12-28T07:31:22;99339.41;;;22.47;30.37
83557;BME280;73523;55.740;13.276;2023-12-28T07:33:48;99341.88;;;22.48;30.21
83557;BME280;73523;55.740;13.276;2023-12-28T07:36:13;99352.41;;;22.46;30.34
83557;BME280;73523;55.740;13.276;2023-12-28T07:38:38;99352.41;;;22.46;30.32
83557;BME280;73523;55.740;13.276;2023-12-28T07:41:04;99348.31;;;22.44;30.36
83557;BME280;73523;55.740;13.276;2023-12-28T07:43:29;99346.38;;;22.44;30.53
83557;BME280;73523;55.740;13.276;2023-12-28T07:45:54;99338.91;;;22.45;30.34
83557;BME280;73523;55.740;13.276;2023-12-28T07:48:20;99335.31;;;22.44;30.43
83557;BME280;73523;55.740;13.276;2023-12-28T07:50:45;99327.84;;;22.45;30.21
83557;BME280;73523;55.740;13.276;2023-12-28T07:53:11;99325.09;;;22.45;30.45
83557;BME280;73523;55.740;13.276;2023-12-28T07:55:36;99300.53;;;22.43;30.39
83557;BME280;73523;55.740;13.276;2023-12-28T07:58:01;99306.06;;;22.43;30.27
83557;BME280;73523;55.740;13.276;2023-12-28T08:00:27;99301.38;;;22.44;30.38
83557;BME280;73523;55.740;13.276;2023-12-28T08:02:52;99303.84;;;22.45;30.41
83557;BME280;73523;55.740;13.276;2023-12-28T08:05:17;99303.00;;;22.45;30.25
83557;BME280;73523;55.740;13.276;2023-12-28T08:07:43;99308.22;;;22.46;30.34
83557;BME280;73523;55.740;13.276;2023-12-28T08:10:08;99305.44;;;22.46;30.29
83557;BME280;73523;55.740;13.276;2023-12-28T08:12:34;99308.75;;;22.48;30.42
83557;BME280;73523;55.740;13.276;2023-12-28T08:14:59;99309.56;;;22.49;30.21
83557;BME280;73523;55.740;13.276;2023-12-28T08:17:25;99305.69;;;22.50;30.38
83557;BME280;73523;55.740;13.276;2023-12-28T08:19:50;99312.88;;;22.51;30.42
83557;BME280;73523;55.740;13.276;2023-12-28T08:22:15;99305.13;;;22.53;30.34
83557;BME280;73523;55.740;13.276;2023-12-28T08:24:41;99310.66;;;22.53;30.50
83557;BME280;73523;55.740;13.276;2023-12-28T08:27:06;99306.53;;;22.50;30.55
83557;BME280;73523;55.740;13.276;2023-12-28T08:29:31;99305.13;;;22.53;30.68
83557;BME280;73523;55.740;13.276;2023-12-28T08:31:57;99296.00;;;22.52;30.38
83557;BME280;73523;55.740;13.276;2023-12-28T08:34:22;99289.66;;;22.52;30.73
83557;BME280;73523;55.740;13.276;2023-12-28T08:36:47;99292.19;;;22.48;30.82
83557;BME280;73523;55.740;13.276;2023-12-28T08:39:13;99302.41;;;22.48;30.48
83557;BME280;73523;55.740;13.276;2023-12-28T08:41:38;99291.34;;;22.48;30.58
83557;BME280;73523;55.740;13.276;2023-12-28T08:44:03;99277.84;;;22.46;30.81
83557;BME280;73523;55.740;13.276;2023-12-28T08:46:29;99278.97;;;22.45;30.84
83557;BME280;73523;55.740;13.276;2023-12-28T08:48:54;99280.59;;;22.46;30.53
83557;BME280;73523;55.740;13.276;2023-12-28T08:51:20;99277.56;;;22.48;30.74
83557;BME280;73523;55.740;13.276;2023-12-28T08:53:46;99288.59;;;22.48;30.63
83557;BME280;73523;55.740;13.276;2023-12-28T08:56:19;99279.19;;;22.49;31.00
83557;BME280;73523;55.740;13.276;2023-12-28T08:58:46;99286.66;;;22.48;30.65
83557;BME280;73523;55.740;13.276;2023-12-28T09:01:22;99285.00;;;22.47;30.80
83557;BME280;73523;55.740;13.276;2023-12-28T09:03:48;99283.06;;;22.48;30.78
83557;BME280;73523;55.740;13.276;2023-12-28T09:06:14;99288.59;;;22.48;30.93
83557;BME280;73523;55.740;13.276;2023-12-28T09:08:43;99288.59;;;22.48;31.00
83557;BME280;73523;55.740;13.276;2023-12-28T09:11:10;99270.38;;;22.47;30.71
83557;BME280;73523;55.740;13.276;2023-12-28T09:13:36;99261.53;;;22.50;30.76
83557;BME280;73523;55.740;13.276;2023-12-28T09:16:02;99261.53;;;22.50;30.82
83557;BME280;73523;55.740;13.276;2023-12-28T09:18:27;99257.09;;;22.49;31.13
83557;BME280;73523;55.740;13.276;2023-12-28T09:20:53;99248.63;;;22.45;30.92
83557;BME280;73523;55.740;13.276;2023-12-28T09:23:18;99249.34;;;22.51;31.10
83557;BME280;73523;55.740;13.276;2023-12-28T09:25:43;99249.44;;;22.46;30.95
83557;BME280;73523;55.740;13.276;2023-12-28T09:28:09;99234.19;;;22.48;30.88
83557;BME280;73523;55.740;13.276;2023-12-28T09:30:34;99258.22;;;22.48;31.20
83557;BME280;73523;55.740;13.276;2023-12-28T09:32:59;99255.16;;;22.49;30.96
83557;BME280;73523;55.740;13.276;2023-12-28T09:35:25;99276.69;;;22.52;30.84
83557;BME280;73523;55.740;13.276;2023-12-28T09:37:50;99274.75;;;22.53;31.13
83557;BME280;73523;55.740;13.276;2023-12-28T09:40:16;99262.34;;;22.50;31.12
83557;BME280;73523;55.740;13.276;2023-12-28T09:43:03;99268.69;;;22.51;31.23
83557;BME280;73523;55.740;13.276;2023-12-28T09:45:31;99265.94;;;22.51;31.17
83557;BME280;73523;55.740;13.276;2023-12-28T09:47:57;99267.88;;;22.50;31.03
83557;BME280;73523;55.740;13.276;2023-12-28T09:50:22;99266.50;;;22.48;31.39
83557;BME280;73523;55.740;13.276;2023-12-28T09:52:51;99290.50;;;22.52;30.98
83557;BME280;73523;55.740;13.276;2023-12-28T09:55:16;99262.63;;;22.49;31.05
83557;BME280;73523;55.740;13.276;2023-12-28T09:57:42;99260.41;;;22.51;31.21
83557;BME280;73523;55.740;13.276;2023-12-28T10:00:09;99263.44;;;22.49;31.23
83557;BME280;73523;55.740;13.276;2023-12-28T10:02:36;99256.00;;;22.50;31.27
83557;BME280;73523;55.740;13.276;2023-12-28T10:05:01;99235.03;;;22.49;31.36
83557;BME280;73523;55.740;13.276;2023-12-28T10:07:27;99235.84;;;22.49;31.11
83557;BME280;73523;55.740;13.276;2023-12-28T10:09:52;99234.19;;;22.48;31.23
83557;BME280;73523;55.740;13.276;2023-12-28T10:12:17;99235.31;;;22.47;31.32
83557;BME280;73523;55.740;13.276;2023-12-28T10:14:43;99230.59;;;22.48;31.27
83557;BME280;73523;55.740;13.276;2023-12-28T10:17:08;99240.53;;;22.49;31.35
83557;BME280;73523;55.740;13.276;2023-12-28T10:19:34;99237.78;;;22.49;31.35
83557;BME280;73523;55.740;13.276;2023-12-28T10:21:59;99243.84;;;22.51;31.21
83557;BME280;73523;55.740;13.276;2023-12-28T10:24:25;99224.78;;;22.49;31.11
83557;BME280;73523;55.740;13.276;2023-12-28T10:26:52;99229.44;;;22.54;31.09
83557;BME280;73523;55.740;13.276;2023-12-28T10:29:17;99240.50;;;22.54;30.98
83557;BME280;73523;55.740;13.276;2023-12-28T10:31:43;99240.50;;;22.54;31.40
83557;BME280;73523;55.740;13.276;2023-12-28T10:34:08;99228.34;;;22.55;31.16
83557;BME280;73523;55.740;13.276;2023-12-28T10:36:34;99237.44;;;22.55;31.22
83557;BME280;73523;55.740;13.276;2023-12-28T10:39:01;99228.34;;;22.55;31.30
83557;BME280;73523;55.740;13.276;2023-12-28T10:41:30;99220.59;;;22.57;31.30
83557;BME280;73523;55.740;13.276;2023-12-28T10:44:04;99216.16;;;22.56;31.29
83557;BME280;73523;55.740;13.276;2023-12-28T10:46:31;99208.41;;;22.58;31.13
83557;BME280;73523;55.740;13.276;2023-12-28T10:49:05;99203.69;;;22.58;30.92
83557;BME280;73523;55.740;13.276;2023-12-28T10:51:35;99198.16;;;22.58;31.27
83557;BME280;73523;55.740;13.276;2023-12-28T10:54:05;99192.13;;;22.56;31.05
83557;BME280;73523;55.740;13.276;2023-12-28T10:56:51;99201.25;;;22.57;30.91
83557;BME280;73523;55.740;13.276;2023-12-28T11:01:58;99159.50;;;22.58;31.06
83557;BME280;73523;55.740;13.276;2023-12-28T11:04:44;99153.19;;;22.58;31.04
83557;BME280;73523;55.740;13.276;2023-12-28T11:07:13;99145.47;;;22.55;31.23
83557;BME280;73523;55.740;13.276;2023-12-28T11:09:41;99134.97;;;22.57;31.12
83557;BME280;73523;55.740;13.276;2023-12-28T11:12:07;99126.16;;;22.55;31.33
83557;BME280;73523;55.740;13.276;2023-12-28T11:14:34;99136.09;;;22.56;31.05
83557;BME280;73523;55.740;13.276;2023-12-28T11:17:00;99123.09;;;22.56;31.20
83557;BME280;73523;55.740;13.276;2023-12-28T11:19:27;99118.41;;;22.57;31.32
83557;BME280;73523;55.740;13.276;2023-12-28T11:21:54;99125.88;;;22.56;31.15
83557;BME280;73523;55.740;13.276;2023-12-28T11:24:22;99116.75;;;22.56;31.29
83557;BME280;73523;55.740;13.276;2023-12-28T11:26:53;99119.22;;;22.57;31.33
83557;BME280;73523;55.740;13.276;2023-12-28T11:29:25;99100.47;;;22.54;31.21
83557;BME280;73523;55.740;13.276;2023-12-28T11:31:51;99107.66;;;22.55;31.35
83557;BME280;73523;55.740;13.276;2023-12-28T11:34:16;99088.31;;;22.55;31.45
83557;BME280;73523;55.740;13.276;2023-12-28T11:36:52;99103.47;;;22.58;31.33
83557;BME280;73523;55.740;13.276;2023-12-28T11:39:26;99101.22;;;22.60;31.29
83557;BME280;73523;55.740;13.276;2023-12-28T11:42:02;99097.19;;;22.52;31.29
83557;BME280;73523;55.740;13.276;2023-12-28T11:44:29;99103.69;;;22.61;31.42
83557;BME280;73523;55.740;13.276;2023-12-28T11:46:54;99095.69;;;22.60;31.23
83557;BME280;73523;55.740;13.276;2023-12-28T11:49:25;99098.97;;;22.62;31.45
83557;BME280;73523;55.740;13.276;2023-12-28T11:51:58;99079.41;;;22.58;31.94
83557;BME280;73523;55.740;13.276;2023-12-28T11:54:25;99087.09;;;22.61;31.36
83557;BME280;73523;55.740;13.276;2023-12-28T11:56:53;99102.28;;;22.64;31.88
83557;BME280;73523;55.740;13.276;2023-12-28T11:59:19;99099.94;;;22.71;32.76
83557;BME280;73523;55.740;13.276;2023-12-28T12:01:51;99089.00;;;22.85;32.47
83557;BME280;73523;55.740;13.276;2023-12-28T12:04:20;99090.78;;;22.94;31.79
83557;BME280;73523;55.740;13.276;2023-12-28T12:06:47;99081.59;;;22.99;31.93
83557;BME280;73523;55.740;13.276;2023-12-28T12:09:13;99093.16;;;23.01;31.91
83557;BME280;73523;55.740;13.276;2023-12-28T12:11:38;99102.50;;;23.05;31.82
83557;BME280;73523;55.740;13.276;2023-12-28T12:14:11;99099.41;;;23.07;31.64
83557;BME280;73523;55.740;13.276;2023-12-28T12:16:37;99108.53;;;23.07;31.72
83557;BME280;73523;55.740;13.276;2023-12-28T12:19:06;99111.00;;;23.09;31.77
83557;BME280;73523;55.740;13.276;2023-12-28T12:21:33;99108.22;;;23.09;31.71
83557;BME280;73523;55.740;13.276;2023-12-28T12:23:59;99096.88;;;23.10;31.90
83557;BME280;73523;55.740;13.276;2023-12-28T12:26:24;99108.22;;;23.09;32.05
83557;BME280;73523;55.740;13.276;2023-12-28T12:28:51;99111.28;;;23.07;32.59
83557;BME280;73523;55.740;13.276;2023-12-28T12:31:17;99119.28;;;23.09;32.29
83557;BME280;73523;55.740;13.276;2023-12-28T12:33:42;99119.28;;;23.09;32.63
83557;BME280;73523;55.740;13.276;2023-12-28T12:36:08;99130.34;;;23.09;32.51
83557;BME280;73523;55.740;13.276;2023-12-28T12:38:34;99136.69;;;23.09;32.74
83557;BME280;73523;55.740;13.276;2023-12-28T12:40:59;99131.16;;;23.09;32.59
83557;BME280;73523;55.740;13.276;2023-12-28T12:43:25;99110.69;;;23.10;32.29
83557;BME280;73523;55.740;13.276;2023-12-28T12:45:51;99125.88;;;23.13;32.29
83557;BME280;73523;55.740;13.276;2023-12-28T12:48:17;99114.00;;;23.12;32.26
83557;BME280;73523;55.740;13.276;2023-12-28T12:50:43;99120.34;;;23.13;32.31
83557;BME280;73523;55.740;13.276;2023-12-28T12:53:08;99119.50;;;23.12;32.16
83557;BME280;73523;55.740;13.276;2023-12-28T12:55:36;99125.03;;;23.12;32.52